Terminal Aerodrome Forecast
Issued by NWS

Home | Current Version | Previous Version | Text Only | Print | Product List | Glossary On
Versions: 1 2 3 4 5 6 7 8 9 10 11 12 13 14
000
FTPA31 PHFO 181120
TAFHMK
TAF
PHMK 181120Z 1812/1912 02005KT P6SM FEW020 SCT045
     FM182000 36008KT P6SM SCT020 SCT040
     FM190500 35005KT P6SM VCSH SCT020 BKN035=

USA.gov is the U.S. government's official web portal to all federal, state and local government web resources and services.